Time;durP1;ratioP1;P1;durP2;ratioP2;P2;SDS_P1;SDS_P2;PMS_P1;PMS_P2;Temp;Humidity;BMP_temperature;BMP_pressure;BME280_temperature;BME280_humidity;BME280_pressure;Samples;Min_cycle;Max_cycle;Signal;HPM_P1;HPM_P2
2023/02/13 00:01:05;;;;;;;22.10;14.30;;;6.00;96.70;;;;;;5056964;28;20628;-71
2023/02/13 00:03:33;;;;;;;20.27;14.13;;;6.00;96.70;;;;;;5057949;28;20041;-71
2023/02/13 00:06:01;;;;;;;18.60;14.02;;;6.00;96.70;;;;;;5056671;28;20048;-71
2023/02/13 00:08:30;;;;;;;20.10;13.82;;;5.80;96.70;;;;;;5046950;28;21043;-72
2023/02/13 00:10:58;;;;;;;20.83;13.93;;;5.80;96.70;;;;;;5040022;28;20068;-71
2023/02/13 00:13:26;;;;;;;19.25;13.75;;;5.80;96.70;;;;;;5054905;28;20041;-72
2023/02/13 00:15:55;;;;;;;19.80;14.63;;;5.80;96.70;;;;;;5038320;28;20054;-71
2023/02/13 00:18:23;;;;;;;16.92;13.25;;;5.80;96.70;;;;;;5057103;28;20044;-71
2023/02/13 00:20:59;;;;;;;18.92;14.30;;;5.80;96.70;;;;;;5021976;28;20044;-71
2023/02/13 00:23:31;;;;;;;20.98;13.85;;;5.80;96.70;;;;;;5055157;28;20047;-71
2023/02/13 00:25:59;;;;;;;19.65;14.20;;;5.70;96.70;;;;;;5055058;28;20040;-71
2023/02/13 00:28:27;;;;;;;18.38;14.13;;;5.70;96.70;;;;;;5025163;28;20498;-71
2023/02/13 00:31:02;;;;;;;18.38;13.05;;;5.60;96.70;;;;;;5024706;28;20040;-71
2023/02/13 00:33:30;;;;;;;16.80;12.63;;;5.50;96.70;;;;;;5038823;28;20049;-71
2023/02/13 00:36:05;;;;;;;14.45;11.00;;;5.40;96.70;;;;;;5040418;28;20105;-71
2023/02/13 00:38:35;;;;;;;16.40;13.23;;;5.40;96.70;;;;;;5056942;28;20417;-71
2023/02/13 00:41:03;;;;;;;22.23;15.55;;;5.40;96.70;;;;;;5023649;28;20179;-71
2023/02/13 00:43:31;;;;;;;17.77;14.05;;;5.30;96.70;;;;;;5037296;28;20065;-72
2023/02/13 00:46:00;;;;;;;18.77;13.65;;;5.30;96.70;;;;;;5037137;28;20041;-72
2023/02/13 00:48:30;;;;;;;14.95;12.30;;;5.30;96.70;;;;;;5040726;28;20596;-71
2023/02/13 00:50:58;;;;;;;16.30;11.25;;;5.30;96.70;;;;;;5062974;28;20115;-72
2023/02/13 00:53:29;;;;;;;13.25;10.18;;;5.20;96.70;;;;;;5035842;28;20121;-71
2023/02/13 00:55:59;;;;;;;13.30;10.27;;;5.20;96.70;;;;;;5039806;28;20064;-72
2023/02/13 00:58:27;;;;;;;13.23;10.40;;;5.20;96.70;;;;;;5044755;28;20832;-71
2023/02/13 01:00:57;;;;;;;14.02;9.43;;;5.20;96.70;;;;;;5042914;28;20052;-71
2023/02/13 01:03:25;;;;;;;12.20;9.73;;;5.20;96.70;;;;;;5043662;28;20048;-72
2023/02/13 01:05:54;;;;;;;12.98;9.70;;;5.00;96.70;;;;;;5062069;28;20549;-72
2023/02/13 01:08:23;;;;;;;13.60;9.98;;;5.10;96.70;;;;;;5038987;28;20039;-71
2023/02/13 01:10:51;;;;;;;12.25;8.93;;;5.00;96.70;;;;;;5031118;28;20041;-71
2023/02/13 01:13:20;;;;;;;11.95;8.38;;;5.10;96.70;;;;;;5044312;28;20156;-72
2023/02/13 01:15:49;;;;;;;11.35;8.02;;;5.20;96.70;;;;;;5062768;28;20037;-71
2023/02/13 01:18:18;;;;;;;9.65;7.20;;;5.30;96.70;;;;;;5063129;28;20506;-71
2023/02/13 01:20:56;;;;;;;10.55;7.97;;;5.20;96.70;;;;;;5059633;28;20073;-71
2023/02/13 01:23:25;;;;;;;9.27;7.20;;;5.20;96.70;;;;;;5034704;28;20053;-72
2023/02/13 01:25:52;;;;;;;10.82;7.63;;;5.20;96.70;;;;;;5015879;28;20051;-72
2023/02/13 01:28:22;;;;;;;12.82;8.30;;;5.30;96.70;;;;;;5056979;28;20040;-72
2023/02/13 01:30:54;;;;;;;10.07;8.10;;;5.30;96.70;;;;;;5043241;28;20127;-71
2023/02/13 01:33:24;;;;;;;10.90;9.27;;;5.30;96.70;;;;;;5053111;28;20048;-71
2023/02/13 01:35:53;;;;;;;13.35;8.43;;;5.30;96.70;;;;;;5057678;28;20053;-72
2023/02/13 01:38:20;;;;;;;9.65;8.05;;;5.20;96.70;;;;;;5041623;28;20079;-71
2023/02/13 01:40:50;;;;;;;10.60;8.02;;;4.50;96.70;;;;;;5041104;28;20037;-71
2023/02/13 01:43:19;;;;;;;11.15;8.32;;;4.20;96.70;;;;;;5059332;28;20044;-71
2023/02/13 01:45:51;;;;;;;11.07;8.38;;;4.00;96.70;;;;;;5038037;28;20037;-71
2023/02/13 01:48:22;;;;;;;13.48;9.20;;;4.10;96.70;;;;;;5042698;28;20049;-71
2023/02/13 01:50:53;;;;;;;17.50;12.20;;;4.40;96.70;;;;;;5028397;28;20049;-71
2023/02/13 01:53:26;;;;;;;15.93;10.20;;;4.30;96.70;;;;;;5037730;28;20048;-71
2023/02/13 01:55:57;;;;;;;16.60;11.85;;;4.50;96.70;;;;;;5037682;28;20059;-72
2023/02/13 01:58:29;;;;;;;15.20;10.65;;;4.60;96.70;;;;;;5028483;28;20052;-71
2023/02/13 02:01:01;;;;;;;14.05;10.80;;;4.60;96.70;;;;;;5033262;28;20115;-71
2023/02/13 02:03:34;;;;;;;15.82;11.18;;;4.80;96.70;;;;;;5040023;28;20040;-72
2023/02/13 02:06:10;;;;;;;14.88;11.02;;;4.60;96.70;;;;;;5039647;28;20506;-71
2023/02/13 02:08:38;;;;;;;18.70;12.85;;;4.60;96.70;;;;;;5042581;28;20566;-71
2023/02/13 02:11:14;;;;;;;16.20;11.60;;;4.70;96.70;;;;;;5040061;28;20048;-71
2023/02/13 02:13:42;;;;;;;17.75;11.43;;;4.80;96.70;;;;;;5034660;28;20144;-71
2023/02/13 02:16:12;;;;;;;17.23;10.73;;;4.90;96.70;;;;;;5040493;28;20045;-71
2023/02/13 02:18:46;;;;;;;17.55;12.15;;;4.90;96.70;;;;;;5053225;28;20056;-71
2023/02/13 02:21:53;;;;;;;18.63;11.50;;;4.70;96.70;;;;;;5038480;28;20593;-70
2023/02/13 02:24:51;;;;;;;13.85;9.90;;;4.70;96.70;;;;;;5025972;28;20124;-71
2023/02/13 02:27:47;;;;;;;13.18;8.60;;;4.60;96.70;;;;;;5037888;28;20560;-71
2023/02/13 02:30:54;;;;;;;11.60;7.72;;;4.70;96.70;;;;;;5036419;28;20764;-71
2023/02/13 02:33:37;;;;;;;10.13;7.55;;;4.70;96.70;;;;;;5031262;28;20067;-70
2023/02/13 02:36:28;;;;;;;10.57;9.20;;;4.70;96.70;;;;;;5023056;28;20396;-71
2023/02/13 02:39:06;;;;;;;11.75;8.05;;;4.80;96.70;;;;;;5034524;28;20045;-71
2023/02/13 02:41:46;;;;;;;11.05;8.10;;;4.80;96.70;;;;;;5035928;28;20049;-71
2023/02/13 02:44:34;;;;;;;11.35;6.53;;;4.90;96.70;;;;;;5018952;28;20057;-71
2023/02/13 02:50:14;;;;;;;9.87;7.03;;;4.90;96.70;;;;;;5039249;28;20045;-71
2023/02/13 02:52:58;;;;;;;7.88;6.20;;;4.90;96.70;;;;;;5011201;28;20034;-71
2023/02/13 02:55:34;;;;;;;9.32;6.85;;;4.60;96.70;;;;;;5039827;28;20432;-71
2023/02/13 03:06:43;;;;;;;9.73;7.55;;;4.70;96.70;;;;;;5037536;28;20053;-71
2023/02/13 03:14:49;;;;;;;10.30;7.18;;;4.80;96.70;;;;;;5036149;28;20041;-72
2023/02/13 03:23:39;;;;;;;9.00;6.88;;;4.80;96.70;;;;;;4961695;28;20141;-71
2023/02/13 03:26:32;;;;;;;8.80;6.75;;;4.70;96.70;;;;;;5021049;28;20057;-71
2023/02/13 03:32:05;;;;;;;9.77;6.82;;;4.70;96.70;;;;;;5034041;28;20048;-71
2023/02/13 03:40:22;;;;;;;8.90;6.68;;;4.70;96.70;;;;;;5029450;28;20243;-71
2023/02/13 03:42:54;;;;;;;9.82;7.07;;;4.60;96.70;;;;;;5028884;28;20045;-71
2023/02/13 03:51:07;;;;;;;9.75;7.55;;;4.60;96.70;;;;;;5037432;28;20142;-71
2023/02/13 03:53:37;;;;;;;10.93;9.07;;;4.60;96.70;;;;;;5042018;28;20514;-72
2023/02/13 03:59:15;;;;;;;8.10;6.85;;;4.50;96.70;;;;;;5035385;28;20086;-71
2023/02/13 04:01:49;;;;;;;9.43;6.60;;;4.50;96.70;;;;;;5033389;28;20148;-71
2023/02/13 04:04:24;;;;;;;9.90;7.47;;;4.60;96.70;;;;;;5031027;28;20053;-71
2023/02/13 04:06:55;;;;;;;9.18;6.68;;;4.60;96.70;;;;;;5033010;28;20041;-71
2023/02/13 04:09:26;;;;;;;11.48;7.40;;;4.50;96.70;;;;;;5033447;28;20068;-71
2023/02/13 04:12:01;;;;;;;8.25;6.85;;;4.50;96.70;;;;;;5038513;28;20510;-71
2023/02/13 04:14:36;;;;;;;9.40;6.68;;;4.40;96.70;;;;;;5031189;28;20052;-71
2023/02/13 04:17:07;;;;;;;8.50;6.32;;;4.40;96.70;;;;;;5037072;28;20102;-71
2023/02/13 04:19:36;;;;;;;8.15;6.35;;;4.40;96.70;;;;;;5036390;28;20045;-71
2023/02/13 04:22:04;;;;;;;7.93;6.00;;;4.40;96.70;;;;;;5036718;28;20171;-71
2023/02/13 04:24:32;;;;;;;10.38;6.43;;;4.30;96.70;;;;;;5040525;28;20483;-75
2023/02/13 04:27:01;;;;;;;7.38;5.47;;;4.30;96.70;;;;;;5023800;28;20589;-74
2023/02/13 04:29:29;;;;;;;11.70;6.68;;;4.20;96.70;;;;;;5035316;28;20051;-74
2023/02/13 04:31:57;;;;;;;9.27;6.35;;;4.30;96.70;;;;;;5039343;28;20394;-74
2023/02/13 04:34:25;;;;;;;8.98;6.80;;;4.20;96.70;;;;;;5038309;28;20063;-74
2023/02/13 04:36:53;;;;;;;9.45;6.45;;;4.10;96.70;;;;;;5038274;28;20048;-75
2023/02/13 04:39:22;;;;;;;8.98;6.28;;;4.20;96.70;;;;;;5043155;28;20037;-74
2023/02/13 04:41:50;;;;;;;8.70;6.68;;;4.30;96.70;;;;;;5039180;28;20045;-74
2023/02/13 04:44:20;;;;;;;7.82;6.15;;;4.20;96.70;;;;;;5041549;28;20510;-74
2023/02/13 04:46:48;;;;;;;7.95;6.05;;;4.20;96.70;;;;;;5041751;28;20529;-74
2023/02/13 04:49:15;;;;;;;8.00;5.85;;;4.20;96.70;;;;;;5039070;28;20124;-74
2023/02/13 04:51:43;;;;;;;8.70;6.15;;;4.20;96.70;;;;;;5039675;28;20128;-74
2023/02/13 04:54:11;;;;;;;9.15;6.70;;;4.20;96.70;;;;;;5042407;28;20045;-74
2023/02/13 04:56:39;;;;;;;9.05;6.05;;;4.30;96.70;;;;;;5035754;28;20406;-74
2023/02/13 04:59:07;;;;;;;8.45;6.15;;;4.30;96.70;;;;;;5028236;28;20064;-74
2023/02/13 05:01:36;;;;;;;8.55;5.88;;;4.30;96.70;;;;;;5016459;28;20080;-74
2023/02/13 05:04:04;;;;;;;9.02;6.13;;;4.20;96.70;;;;;;5028331;28;20041;-74
2023/02/13 05:06:32;;;;;;;8.00;5.53;;;4.30;96.70;;;;;;5036613;28;20052;-74
2023/02/13 05:09:00;;;;;;;7.15;5.45;;;4.30;96.70;;;;;;5032504;28;20049;-74
2023/02/13 05:11:27;;;;;;;8.20;5.78;;;4.30;96.70;;;;;;5033128;28;20046;-74
2023/02/13 05:13:55;;;;;;;8.35;5.68;;;4.30;96.70;;;;;;5034237;28;20140;-75
2023/02/13 05:16:23;;;;;;;8.75;5.18;;;4.30;96.70;;;;;;5027320;28;20067;-74
2023/02/13 05:18:53;;;;;;;7.88;5.72;;;4.20;96.70;;;;;;5030736;28;20047;-74
2023/02/13 05:24:08;;;;;;;6.85;5.35;;;4.10;96.70;;;;;;5032237;28;20064;-74
2023/02/13 05:26:36;;;;;;;8.60;5.65;;;4.10;96.70;;;;;;5019688;28;20536;-74
2023/02/13 05:29:19;;;;;;;6.05;4.63;;;4.00;96.70;;;;;;5039711;28;20729;-74
2023/02/13 05:31:48;;;;;;;7.28;5.75;;;3.90;96.70;;;;;;5039899;28;20748;-75
2023/02/13 05:34:19;;;;;;;9.32;6.32;;;4.00;96.70;;;;;;5039750;28;20138;-75
2023/02/13 05:36:47;;;;;;;7.70;5.45;;;4.00;96.70;;;;;;5041238;28;20053;-74
2023/02/13 05:39:15;;;;;;;8.60;5.70;;;3.90;96.70;;;;;;5022484;28;20103;-74
2023/02/13 05:41:44;;;;;;;6.80;5.07;;;3.90;96.70;;;;;;5039681;28;20041;-74
2023/02/13 05:44:12;;;;;;;9.95;6.18;;;3.90;96.70;;;;;;5030442;28;20076;-74
2023/02/13 05:46:41;;;;;;;7.57;5.75;;;3.90;96.70;;;;;;5037873;28;20045;-74
2023/02/13 05:49:10;;;;;;;8.38;5.25;;;3.70;96.70;;;;;;5038942;28;20037;-74
2023/02/13 05:51:40;;;;;;;8.85;5.88;;;3.70;96.70;;;;;;5038941;28;20049;-74
2023/02/13 05:54:08;;;;;;;7.40;5.38;;;3.80;96.70;;;;;;5039508;28;20490;-74
2023/02/13 05:56:36;;;;;;;8.60;5.90;;;3.80;96.70;;;;;;5030511;28;20044;-74
2023/02/13 05:59:04;;;;;;;9.00;5.60;;;3.90;96.70;;;;;;5041780;28;20083;-74
2023/02/13 06:01:32;;;;;;;7.55;5.20;;;3.80;96.70;;;;;;5039549;28;20045;-75
2023/02/13 06:04:00;;;;;;;9.55;5.50;;;3.80;96.70;;;;;;5033281;28;20065;-74
2023/02/13 06:06:30;;;;;;;8.98;5.53;;;3.90;96.70;;;;;;5027255;28;20469;-75
2023/02/13 06:08:59;;;;;;;10.05;5.80;;;3.80;96.70;;;;;;5025166;28;20048;-74
2023/02/13 06:11:27;;;;;;;8.45;5.50;;;3.90;96.70;;;;;;5028571;28;20041;-75
2023/02/13 06:13:55;;;;;;;7.95;5.10;;;3.80;96.70;;;;;;5039078;28;20102;-73
2023/02/13 06:16:22;;;;;;;7.53;5.43;;;3.80;96.70;;;;;;5040715;28;20060;-74
2023/02/13 06:18:50;;;;;;;9.00;5.82;;;3.80;96.70;;;;;;5038919;28;20057;-74
2023/02/13 06:21:19;;;;;;;8.18;5.38;;;3.70;96.70;;;;;;5036803;28;20641;-73
2023/02/13 06:23:47;;;;;;;7.57;5.10;;;3.70;96.70;;;;;;5038627;28;20045;-74
2023/02/13 06:26:17;;;;;;;8.82;5.50;;;3.30;96.70;;;;;;5013944;28;20044;-74
2023/02/13 06:28:45;;;;;;;10.55;7.32;;;3.30;96.70;;;;;;5039077;28;20398;-74
2023/02/13 06:31:13;;;;;;;10.75;5.78;;;3.20;96.70;;;;;;5034989;28;20087;-73
2023/02/13 06:33:41;;;;;;;9.40;6.47;;;3.30;96.70;;;;;;5038308;28;20581;-74
2023/02/13 06:36:09;;;;;;;9.60;6.63;;;3.30;96.70;;;;;;5035927;28;20055;-74
2023/02/13 06:38:37;;;;;;;8.40;5.82;;;3.40;96.70;;;;;;5037965;28;20048;-75
2023/02/13 06:41:05;;;;;;;9.93;6.35;;;3.40;96.70;;;;;;5038743;28;20526;-74
2023/02/13 06:43:35;;;;;;;11.45;6.68;;;3.60;96.70;;;;;;5038259;28;20043;-74
2023/02/13 06:46:06;;;;;;;8.07;5.45;;;3.60;96.70;;;;;;5039868;28;20045;-74
2023/02/13 06:48:34;;;;;;;8.80;6.10;;;3.70;96.70;;;;;;5034660;28;20033;-74
2023/02/13 06:51:02;;;;;;;8.38;5.65;;;3.80;96.70;;;;;;5036541;28;21359;-73
2023/02/13 06:53:30;;;;;;;10.02;6.05;;;3.90;96.70;;;;;;5033649;28;20049;-74
2023/02/13 06:55:58;;;;;;;11.07;6.07;;;4.00;96.70;;;;;;5029266;28;20041;-74
2023/02/13 06:58:26;;;;;;;8.02;6.22;;;4.00;96.70;;;;;;5024772;28;20052;-74
2023/02/13 07:00:55;;;;;;;10.35;5.85;;;4.10;96.70;;;;;;5034712;28;20052;-74
2023/02/13 07:03:23;;;;;;;10.63;5.55;;;4.10;96.70;;;;;;5039361;28;20046;-74
2023/02/13 07:05:51;;;;;;;9.05;5.88;;;4.10;96.70;;;;;;5025810;28;20052;-73
2023/02/13 07:08:18;;;;;;;9.70;5.22;;;4.10;96.70;;;;;;5032648;28;20598;-73
2023/02/13 07:10:46;;;;;;;7.85;5.45;;;4.20;96.70;;;;;;5031039;28;20507;-73
2023/02/13 07:13:14;;;;;;;8.68;5.78;;;4.20;96.70;;;;;;5030439;28;20047;-74
2023/02/13 07:15:42;;;;;;;11.88;7.30;;;4.30;96.70;;;;;;5031585;28;20046;-73
2023/02/13 07:18:11;;;;;;;12.20;6.88;;;4.30;96.70;;;;;;5041546;28;20572;-74
2023/02/13 07:20:39;;;;;;;9.30;6.07;;;4.40;96.70;;;;;;5032672;28;20037;-74
2023/02/13 07:23:06;;;;;;;12.43;7.15;;;4.20;96.70;;;;;;5039004;28;20051;-74
2023/02/13 07:25:34;;;;;;;10.52;6.80;;;4.40;96.70;;;;;;5041868;28;20147;-74
2023/02/13 07:28:03;;;;;;;9.82;6.00;;;4.50;96.70;;;;;;5039196;28;20368;-74
2023/02/13 07:30:32;;;;;;;9.07;6.20;;;4.60;96.70;;;;;;5038202;28;20049;-74
2023/02/13 07:33:02;;;;;;;9.63;5.38;;;4.70;96.70;;;;;;5033654;28;20087;-74
2023/02/13 07:35:32;;;;;;;8.50;6.13;;;4.80;96.70;;;;;;5034486;28;20045;-73
2023/02/13 07:37:59;;;;;;;9.50;6.22;;;4.90;96.70;;;;;;5037274;28;20041;-73
2023/02/13 07:40:27;;;;;;;12.25;6.32;;;4.90;96.70;;;;;;5037738;28;20072;-74
2023/02/13 07:42:55;;;;;;;8.95;5.80;;;5.00;96.70;;;;;;5028174;28;20049;-74
2023/02/13 07:45:22;;;;;;;9.95;6.00;;;5.10;96.70;;;;;;5025950;28;20076;-74
2023/02/13 07:47:50;;;;;;;7.75;5.70;;;5.10;96.70;;;;;;5033410;28;20049;-73
2023/02/13 07:50:18;;;;;;;9.23;6.60;;;5.20;96.70;;;;;;5037480;28;20041;-75
2023/02/13 07:52:53;;;;;;;11.57;5.70;;;5.30;96.70;;;;;;5040246;28;20041;-74
2023/02/13 07:55:21;;;;;;;9.57;5.90;;;5.30;96.70;;;;;;5028092;28;20055;-74
2023/02/13 07:57:49;;;;;;;11.10;6.25;;;5.40;96.70;;;;;;5041855;28;20840;-71
2023/02/13 08:00:18;;;;;;;11.02;7.63;;;5.50;96.70;;;;;;5034935;28;20049;-72
2023/02/13 08:02:46;;;;;;;12.77;7.20;;;5.40;96.70;;;;;;5014638;28;20108;-71
2023/02/13 08:05:14;;;;;;;11.98;7.30;;;5.50;96.70;;;;;;5039680;28;20518;-72
2023/02/13 08:07:42;;;;;;;10.23;7.38;;;5.50;96.70;;;;;;5034591;28;20043;-72
2023/02/13 08:12:59;;;;;;;15.43;8.32;;;5.60;96.70;;;;;;5030168;28;20068;-72
2023/02/13 08:15:27;;;;;;;18.38;11.48;;;5.80;96.70;;;;;;5028084;28;20041;-72
2023/02/13 08:17:55;;;;;;;18.55;11.35;;;5.90;96.70;;;;;;5039387;28;20049;-72
2023/02/13 08:20:23;;;;;;;15.32;10.13;;;5.90;96.70;;;;;;5029328;28;20037;-72
2023/02/13 08:22:51;;;;;;;16.35;9.15;;;6.00;96.70;;;;;;5028345;28;20126;-72
2023/02/13 08:25:20;;;;;;;18.55;9.90;;;6.10;96.70;;;;;;5026365;28;20116;-72
2023/02/13 08:27:48;;;;;;;18.05;10.57;;;6.20;96.70;;;;;;5033164;28;20067;-72
2023/02/13 08:30:15;;;;;;;20.60;11.80;;;6.30;96.70;;;;;;5036844;28;20037;-71
2023/02/13 08:32:43;;;;;;;18.90;12.10;;;6.40;96.70;;;;;;5038257;28;20120;-72
2023/02/13 08:35:21;;;;;;;21.15;12.25;;;6.60;96.70;;;;;;5040173;28;20042;-72
2023/02/13 08:37:49;;;;;;;20.10;11.73;;;6.70;96.70;;;;;;5031759;28;20037;-73
2023/02/13 08:40:17;;;;;;;17.95;11.10;;;6.80;96.70;;;;;;5025062;28;20122;-72
2023/02/13 08:42:46;;;;;;;16.52;10.38;;;6.90;96.70;;;;;;5023692;28;20590;-72
2023/02/13 08:45:14;;;;;;;17.30;11.05;;;7.00;96.70;;;;;;5030771;28;20549;-72
2023/02/13 08:47:42;;;;;;;22.00;12.63;;;7.20;96.70;;;;;;5042000;28;20041;-73
2023/02/13 08:50:10;;;;;;;19.73;11.95;;;7.30;96.70;;;;;;5035047;28;20050;-72
2023/02/13 08:52:38;;;;;;;17.30;11.88;;;7.50;96.70;;;;;;5025245;28;20037;-73
2023/02/13 08:55:06;;;;;;;18.13;10.68;;;7.60;96.70;;;;;;5029699;28;20044;-73
2023/02/13 08:57:34;;;;;;;20.25;11.68;;;7.80;96.70;;;;;;5036701;28;20052;-73
2023/02/13 09:00:04;;;;;;;19.50;10.90;;;7.90;96.70;;;;;;5030290;28;20033;-73
2023/02/13 09:02:32;;;;;;;19.10;10.70;;;8.10;96.70;;;;;;5026038;28;20136;-73
2023/02/13 09:05:00;;;;;;;15.68;10.10;;;8.20;96.70;;;;;;5052002;28;20044;-72
2023/02/13 09:07:28;;;;;;;14.73;8.68;;;8.40;96.70;;;;;;5057560;28;20506;-72
2023/02/13 09:09:56;;;;;;;11.70;7.88;;;8.40;96.70;;;;;;5045545;28;20584;-73
2023/02/13 09:12:23;;;;;;;10.77;6.75;;;8.60;96.70;;;;;;5037491;28;20542;-72
2023/02/13 09:14:51;;;;;;;9.48;6.22;;;8.80;96.70;;;;;;5031927;28;20044;-73
2023/02/13 09:17:21;;;;;;;7.50;5.25;;;9.00;96.70;;;;;;5045490;28;20196;-74
2023/02/13 09:19:48;;;;;;;9.38;6.38;;;9.10;96.70;;;;;;5033534;28;20499;-73
2023/02/13 09:22:16;;;;;;;9.27;6.20;;;9.20;96.70;;;;;;5052227;28;20048;-73
2023/02/13 09:24:44;;;;;;;10.30;5.90;;;9.30;96.70;;;;;;5050949;28;20071;-72
2023/02/13 09:27:12;;;;;;;12.23;7.53;;;9.40;96.70;;;;;;5045041;28;20498;-73
2023/02/13 09:29:40;;;;;;;13.48;8.45;;;9.60;96.70;;;;;;5062967;28;20136;-73
2023/02/13 09:32:08;;;;;;;13.88;8.57;;;9.80;96.70;;;;;;5038777;28;20461;-76
2023/02/13 09:34:38;;;;;;;10.50;6.82;;;10.00;96.70;;;;;;5037889;28;20040;-76
2023/02/13 09:37:06;;;;;;;8.05;5.40;;;10.20;96.70;;;;;;5060660;28;20041;-77
2023/02/13 09:39:33;;;;;;;10.63;6.72;;;10.30;96.70;;;;;;5054481;28;20051;-77
2023/02/13 09:42:04;;;;;;;12.07;7.43;;;10.40;96.70;;;;;;5054420;28;20064;-76
2023/02/13 09:44:41;;;;;;;14.88;8.73;;;10.60;96.70;;;;;;5039131;28;20172;-76
2023/02/13 09:47:15;;;;;;;12.50;7.60;;;10.80;96.70;;;;;;5057214;28;20049;-77
2023/02/13 09:49:48;;;;;;;11.52;7.03;;;10.90;96.70;;;;;;5040923;28;20715;-76
2023/02/13 09:52:16;;;;;;;7.68;5.63;;;11.00;96.70;;;;;;5027621;28;20525;-77
2023/02/13 09:54:44;;;;;;;9.23;5.45;;;11.10;96.70;;;;;;5029784;28;20040;-78
2023/02/13 09:57:19;;;;;;;10.98;5.90;;;11.20;96.70;;;;;;5042380;28;20515;-78
2023/02/13 09:59:57;;;;;;;12.43;7.10;;;11.30;96.70;;;;;;5053342;28;20036;-75
2023/02/13 10:02:39;;;;;;;7.97;5.75;;;11.40;96.70;;;;;;5035492;28;20136;-77
2023/02/13 10:05:22;;;;;;;8.13;5.88;;;11.50;96.70;;;;;;5026729;28;20555;-77
2023/02/13 10:08:00;;;;;;;7.78;5.63;;;11.60;96.70;;;;;;5016726;28;20147;-73
2023/02/13 10:10:42;;;;;;;10.55;5.40;;;11.60;96.70;;;;;;5048967;28;20098;-82
2023/02/13 10:13:29;;;;;;;8.57;5.50;;;11.70;96.70;;;;;;5064142;28;20490;-76
2023/02/13 10:16:06;;;;;;;6.22;4.55;;;11.80;96.70;;;;;;5035571;28;20045;-75
2023/02/13 10:18:42;;;;;;;8.68;4.15;;;11.90;96.70;;;;;;5042780;28;20052;-74
2023/02/13 10:21:13;;;;;;;8.83;4.60;;;12.00;96.70;;;;;;5030360;28;20545;-77
2023/02/13 10:23:45;;;;;;;5.32;4.45;;;12.10;96.70;;;;;;5032444;28;20044;-77
2023/02/13 10:26:19;;;;;;;10.30;4.95;;;12.20;96.70;;;;;;5036671;28;20049;-77
2023/02/13 10:30:03;;;;;;;6.90;4.20;;;12.30;96.70;;;;;;5016553;28;20044;-77
2023/02/13 10:31:42;;;;;;;5.20;3.78;;;12.40;96.70;;;;;;5042035;28;20386;-76
2023/02/13 10:34:14;;;;;;;6.57;3.95;;;12.40;96.70;;;;;;5015878;28;20045;-76
2023/02/13 10:36:46;;;;;;;5.75;4.25;;;12.60;96.70;;;;;;5026174;28;20059;-75
2023/02/13 10:39:27;;;;;;;6.40;3.60;;;12.70;96.70;;;;;;5044322;28;20107;-75
2023/02/13 10:42:03;;;;;;;5.32;4.15;;;12.80;96.70;;;;;;5045036;28;20049;-75
2023/02/13 10:44:45;;;;;;;8.50;4.05;;;12.80;96.70;;;;;;5034520;28;20045;-74
2023/02/13 10:47:23;;;;;;;9.10;4.10;;;12.90;96.70;;;;;;5026228;28;20481;-74
2023/02/13 10:50:02;;;;;;;6.85;3.85;;;13.00;96.70;;;;;;5026175;28;20431;-75
2023/02/13 10:52:43;;;;;;;6.30;3.92;;;13.00;96.70;;;;;;5033959;28;21103;-74
2023/02/13 10:55:35;;;;;;;6.50;3.83;;;13.00;96.70;;;;;;5056352;28;20036;-74
2023/02/13 10:58:11;;;;;;;5.00;3.80;;;13.20;96.70;;;;;;5030580;28;20536;-75
2023/02/13 11:00:45;;;;;;;7.53;4.38;;;13.30;96.70;;;;;;5056777;28;20052;-76
2023/02/13 11:03:18;;;;;;;7.13;4.15;;;13.40;96.70;;;;;;5046691;28;20051;-76
2023/02/13 11:05:46;;;;;;;5.10;4.22;;;13.50;96.70;;;;;;5051852;28;20040;-76
2023/02/13 11:08:20;;;;;;;6.43;3.40;;;13.60;96.70;;;;;;5040170;28;20114;-77
2023/02/13 11:10:48;;;;;;;4.53;3.38;;;13.60;96.70;;;;;;5051501;28;20037;-78
2023/02/13 11:13:18;;;;;;;5.18;3.33;;;13.80;96.70;;;;;;5062670;28;20055;-76
2023/02/13 11:16:01;;;;;;;7.68;4.50;;;13.80;96.70;;;;;;5037684;28;20060;-76
2023/02/13 11:18:32;;;;;;;5.35;3.60;;;13.90;96.70;;;;;;5044097;28;20051;-75
2023/02/13 11:21:07;;;;;;;5.75;3.65;;;13.90;96.70;;;;;;5052754;28;20132;-74
2023/02/13 11:23:44;;;;;;;7.22;4.05;;;14.00;96.70;;;;;;5052840;28;20049;-76
2023/02/13 11:26:20;;;;;;;6.35;3.10;;;14.10;96.70;;;;;;5047035;28;20044;-78
2023/02/13 11:28:53;;;;;;;6.78;3.85;;;14.10;96.70;;;;;;5025493;28;21390;-77
2023/02/13 11:31:27;;;;;;;6.85;3.55;;;14.20;96.70;;;;;;5038915;28;20127;-75
2023/02/13 11:33:56;;;;;;;5.47;3.30;;;14.30;96.70;;;;;;5027902;28;20086;-76
2023/02/13 11:36:28;;;;;;;4.32;3.38;;;14.40;96.70;;;;;;5043454;28;20036;-75
2023/02/13 11:39:04;;;;;;;6.20;4.35;;;14.60;96.70;;;;;;5041784;28;20090;-76
2023/02/13 11:41:38;;;;;;;6.75;3.58;;;14.60;96.70;;;;;;5020302;28;20052;-76
2023/02/13 11:44:20;;;;;;;5.82;4.30;;;14.70;96.70;;;;;;5042163;28;20040;-76
2023/02/13 11:46:49;;;;;;;12.57;7.40;;;14.70;96.70;;;;;;5024880;28;20498;-77
2023/02/13 11:49:21;;;;;;;15.30;9.05;;;14.90;96.70;;;;;;5051918;28;20041;-76
2023/02/13 11:51:50;;;;;;;12.13;6.80;;;15.00;96.70;;;;;;5025382;28;20060;-77
2023/02/13 11:54:30;;;;;;;6.97;5.30;;;15.10;96.70;;;;;;5032963;28;20053;-75
2023/02/13 11:57:00;;;;;;;6.00;4.25;;;15.20;96.70;;;;;;5051960;28;20047;-76
2023/02/13 11:59:39;;;;;;;5.80;4.20;;;15.20;96.70;;;;;;5027980;28;20425;-76
2023/02/13 12:02:13;;;;;;;;;;;15.30;96.70;;;;;;5050882;28;20057;-76
2023/02/13 12:04:41;;;;;;;3.65;2.88;;;15.50;96.70;;;;;;5033386;28;19953;-75
2023/02/13 12:07:17;;;;;;;3.63;2.83;;;15.50;96.70;;;;;;5059201;28;20040;-75
2023/02/13 12:09:52;;;;;;;4.38;2.92;;;15.60;96.70;;;;;;5035045;28;20048;-76
2023/02/13 12:12:28;;;;;;;6.97;2.53;;;15.70;96.70;;;;;;5057120;28;20044;-76
2023/02/13 12:14:56;;;;;;;3.42;2.60;;;15.80;96.70;;;;;;5040913;28;20451;-76
2023/02/13 12:17:27;;;;;;;4.28;2.38;;;15.90;96.70;;;;;;5050999;28;20492;-76
2023/02/13 12:19:59;;;;;;;3.60;2.13;;;16.00;96.70;;;;;;5028157;28;20052;-76
2023/02/13 12:22:43;;;;;;;4.20;2.97;;;16.00;96.70;;;;;;5054599;28;20033;-76
2023/02/13 12:25:40;;;;;;;3.35;2.78;;;16.10;96.70;;;;;;5024499;28;20083;-76
2023/02/13 12:28:13;;;;;;;4.03;2.80;;;16.20;96.70;;;;;;5040306;28;20061;-75
2023/02/13 12:31:23;;;;;;;4.55;2.75;;;16.30;96.70;;;;;;5042798;28;20644;-76
2023/02/13 12:34:23;;;;;;;3.45;2.40;;;16.40;96.70;;;;;;5050007;28;20049;-75
2023/02/13 12:37:05;;;;;;;3.33;2.35;;;16.50;96.70;;;;;;5029652;28;20065;-76
2023/02/13 12:39:35;;;;;;;2.38;2.17;;;16.50;96.70;;;;;;5053055;28;20052;-75
2023/02/13 12:42:20;;;;;;;3.53;2.30;;;16.60;96.70;;;;;;5026587;28;20049;-76
2023/02/13 12:45:10;;;;;;;2.53;2.20;;;16.70;96.70;;;;;;5044985;28;20052;-79
2023/02/13 12:47:50;;;;;;;3.65;2.63;;;16.80;96.70;;;;;;5019526;28;20047;-79
2023/02/13 12:50:31;;;;;;;3.63;2.65;;;16.80;96.70;;;;;;5055089;28;20116;-76
2023/02/13 12:53:16;;;;;;;4.15;2.88;;;16.90;96.70;;;;;;5065126;28;20048;-76
2023/02/13 12:56:10;;;;;;;5.22;3.35;;;17.00;96.70;;;;;;5046898;28;20041;-77
2023/02/13 12:58:58;;;;;;;4.32;2.58;;;17.00;96.70;;;;;;5045328;28;20124;-77
2023/02/13 13:01:54;;;;;;;4.97;2.13;;;17.10;96.70;;;;;;5044805;28;20554;-80
2023/02/13 13:04:28;;;;;;;3.97;2.30;;;17.10;96.70;;;;;;4991614;28;20106;-80
2023/02/13 13:07:26;;;;;;;2.67;2.30;;;17.10;96.70;;;;;;5042835;28;20040;-76
2023/02/13 13:10:10;;;;;;;;;;;17.20;96.70;;;;;;5040229;28;20929;-77
2023/02/13 13:12:48;;;;;;;3.33;2.13;;;17.30;96.70;;;;;;5047717;28;19964;-77
2023/02/13 13:15:31;;;;;;;4.10;2.30;;;17.30;96.70;;;;;;5063291;28;20094;-76
2023/02/13 13:18:11;;;;;;;3.13;2.33;;;17.40;96.70;;;;;;5061346;28;20123;-77
2023/02/13 13:20:53;;;;;;;3.65;2.63;;;17.40;96.70;;;;;;5046981;28;20053;-77
2023/02/13 13:23:26;;;;;;;2.28;2.00;;;17.50;96.70;;;;;;5045963;28;20045;-76
2023/02/13 13:26:06;;;;;;;2.90;2.50;;;17.50;96.70;;;;;;5046532;28;20702;-77
2023/02/13 13:28:37;;;;;;;4.78;2.70;;;17.50;96.70;;;;;;5029502;28;20068;-77
2023/02/13 13:31:08;;;;;;;4.75;2.40;;;17.50;96.70;;;;;;5063152;28;20040;-76
2023/02/13 13:33:41;;;;;;;3.35;2.30;;;17.60;96.70;;;;;;5053675;28;20044;-77
2023/02/13 13:36:15;;;;;;;3.35;2.53;;;17.60;96.70;;;;;;5042433;28;20048;-77
2023/02/13 13:38:52;;;;;;;3.30;2.42;;;17.60;96.70;;;;;;5063923;28;20047;-77
2023/02/13 13:41:30;;;;;;;4.45;2.95;;;17.60;96.70;;;;;;5054593;28;20045;-78
2023/02/13 13:44:21;;;;;;;3.90;2.88;;;17.60;96.70;;;;;;5038333;28;20052;-77
2023/02/13 13:46:58;;;;;;;4.07;2.50;;;17.50;96.70;;;;;;5042938;28;20143;-77
2023/02/13 13:49:35;;;;;;;3.60;2.60;;;17.50;96.70;;;;;;5042679;28;20060;-77
2023/02/13 13:52:18;;;;;;;5.18;2.50;;;17.50;96.70;;;;;;5010209;28;20049;-77
2023/02/13 13:54:50;;;;;;;4.30;2.28;;;17.50;96.70;;;;;;5019479;28;20479;-77
2023/02/13 13:57:19;;;;;;;2.63;1.95;;;17.50;96.70;;;;;;5028216;28;20051;-76
2023/02/13 14:00:16;;;;;;;4.25;2.78;;;17.50;96.70;;;;;;5054197;28;20040;-77
2023/02/13 14:02:47;;;;;;;3.88;2.67;;;17.50;96.70;;;;;;5031876;28;20155;-77